Time;durP1;ratioP1;P1;durP2;ratioP2;P2;SDS_P1;SDS_P2;PMS_P1;PMS_P2;Temp;Humidity;BMP_temperature;BMP_pressure;BME280_temperature;BME280_humidity;BME280_pressure;Samples;Min_cycle;Max_cycle;Signal;HPM_P1;HPM_P2
2023/03/16 00:03:30;;;;;;;29.73;15.50;;;1.90;99.90;;;;;;10093548;29;20677;-83
2023/03/16 00:08:34;;;;;;;25.47;13.63;;;2.10;99.90;;;;;;10090178;29;20244;-83
2023/03/16 00:13:37;;;;;;;24.30;13.57;;;2.50;99.90;;;;;;10092583;29;20688;-83
2023/03/16 00:18:40;;;;;;;25.00;13.93;;;3.00;99.90;;;;;;10092008;29;20403;-83
2023/03/16 00:23:43;;;;;;;24.80;14.87;;;3.00;99.90;;;;;;10089975;29;20211;-83
2023/03/16 00:28:45;;;;;;;21.67;12.87;;;3.00;99.90;;;;;;10092473;29;20270;-82
2023/03/16 00:33:48;;;;;;;24.80;12.47;;;3.00;99.90;;;;;;10085928;29;20717;-82
2023/03/16 00:38:52;;;;;;;19.37;10.30;;;3.80;99.90;;;;;;10092041;29;20705;-83
2023/03/16 00:43:55;;;;;;;23.13;11.33;;;3.60;99.90;;;;;;10059284;29;20250;-82
2023/03/16 00:48:58;;;;;;;20.40;11.63;;;3.90;99.90;;;;;;10053343;29;20261;-82
2023/03/16 00:54:00;;;;;;;18.43;11.50;;;4.20;99.90;;;;;;10052413;29;20241;-82
2023/03/16 00:59:04;;;;;;;19.50;10.67;;;4.50;99.90;;;;;;10052790;29;20251;-82
2023/03/16 01:04:08;;;;;;;17.03;10.93;;;5.30;99.90;;;;;;10073323;29;20318;-82
2023/03/16 01:09:11;;;;;;;19.50;9.83;;;5.30;99.90;;;;;;10089575;29;20270;-82
2023/03/16 01:14:13;;;;;;;17.47;10.87;;;5.20;99.90;;;;;;10090349;29;20301;-83
2023/03/16 01:19:16;;;;;;;14.33;8.73;;;5.00;99.90;;;;;;10088484;29;20275;-82
2023/03/16 01:24:19;;;;;;;14.57;8.37;;;5.30;99.90;;;;;;10090298;29;20274;-82
2023/03/16 01:29:21;;;;;;;15.67;9.30;;;5.20;99.90;;;;;;10075333;29;20314;-82
2023/03/16 01:34:27;;;;;;;19.03;9.67;;;4.60;99.90;;;;;;10050004;29;20252;-82
2023/03/16 01:39:30;;;;;;;14.57;9.50;;;4.70;99.90;;;;;;10066022;29;20249;-82
2023/03/16 01:45:00;;;;;;;16.77;8.93;;;5.00;99.90;;;;;;10050611;29;20636;-82
2023/03/16 01:50:08;;;;;;;14.77;8.23;;;5.50;99.90;;;;;;10077622;29;20277;-82
2023/03/16 01:55:14;;;;;;;15.53;9.00;;;5.50;99.90;;;;;;10088623;29;20983;-82
2023/03/16 02:00:22;;;;;;;14.50;9.37;;;5.60;99.90;;;;;;10065288;29;20308;-82
2023/03/16 02:05:49;;;;;;;9.33;6.47;;;5.20;99.90;;;;;;10050412;29;20241;-82
2023/03/16 02:10:54;;;;;;;13.47;7.73;;;5.30;99.90;;;;;;10059085;29;20283;-82
2023/03/16 02:16:01;;;;;;;14.97;8.33;;;5.20;99.90;;;;;;10065505;29;20253;-82
2023/03/16 02:21:18;;;;;;;12.10;8.40;;;5.60;99.90;;;;;;10055964;29;20277;-83
2023/03/16 02:26:43;;;;;;;10.97;7.67;;;6.20;99.90;;;;;;10085006;29;20654;-82
2023/03/16 02:31:50;;;;;;;14.37;7.63;;;7.20;99.90;;;;;;10068578;29;20324;-82
2023/03/16 02:36:54;;;;;;;17.50;8.03;;;6.90;99.90;;;;;;10077378;29;20245;-82
2023/03/16 02:42:00;;;;;;;12.67;7.80;;;6.90;99.90;;;;;;10094121;29;20381;-82
2023/03/16 02:47:15;;;;;;;16.57;7.73;;;6.80;99.90;;;;;;10085196;29;20247;-82
2023/03/16 02:52:18;;;;;;;14.27;7.00;;;7.30;99.90;;;;;;10058138;29;20273;-82
2023/03/16 02:57:21;;;;;;;12.30;7.07;;;7.50;99.90;;;;;;10076674;29;20300;-82
2023/03/16 03:02:23;;;;;;;11.87;7.63;;;7.30;99.90;;;;;;10074384;29;20311;-82
2023/03/16 03:07:30;;;;;;;13.00;6.70;;;6.80;99.90;;;;;;10093536;29;20632;-82
2023/03/16 03:12:38;;;;;;;11.83;5.87;;;6.30;99.90;;;;;;10094139;29;20293;-82
2023/03/16 03:17:43;;;;;;;11.57;7.07;;;5.80;99.90;;;;;;10094341;29;20269;-82
2023/03/16 03:22:48;;;;;;;12.63;7.80;;;5.90;99.90;;;;;;10093622;29;20322;-82
2023/03/16 03:27:53;;;;;;;15.83;7.93;;;6.60;99.90;;;;;;10087854;29;20943;-82
2023/03/16 03:32:57;;;;;;;14.87;7.97;;;6.80;99.90;;;;;;10066387;29;20265;-82
2023/03/16 03:37:59;;;;;;;11.47;7.50;;;7.20;99.90;;;;;;10095168;29;20629;-82
2023/03/16 03:43:04;;;;;;;11.40;7.00;;;8.00;99.90;;;;;;10065791;29;20316;-82
2023/03/16 03:48:11;;;;;;;12.33;6.57;;;7.70;99.90;;;;;;10069883;29;20258;-82
2023/03/16 03:53:14;;;;;;;14.10;8.03;;;7.50;99.90;;;;;;10059140;29;20329;-82
2023/03/16 03:58:39;;;;;;;10.93;7.13;;;7.50;99.90;;;;;;10055512;29;20346;-82
2023/03/16 04:03:43;;;;;;;14.73;6.30;;;7.40;99.90;;;;;;10069953;29;20253;-83
2023/03/16 04:08:49;;;;;;;9.87;6.50;;;6.10;98.10;;;;;;10053790;29;20836;-82
2023/03/16 04:13:56;;;;;;;14.57;7.30;;;5.90;99.90;;;;;;10061571;29;20272;-82
2023/03/16 04:18:59;;;;;;;13.60;7.57;;;6.80;99.90;;;;;;10068535;29;20305;-82
2023/03/16 04:24:04;;;;;;;8.40;6.50;;;7.50;99.90;;;;;;10074902;29;20284;-82
2023/03/16 04:29:16;;;;;;;8.47;6.20;;;7.70;99.90;;;;;;10091551;29;20228;-82
2023/03/16 04:34:23;;;;;;;12.60;7.93;;;7.70;99.90;;;;;;10074165;29;20315;-82
2023/03/16 04:39:31;;;;;;;9.67;6.43;;;7.80;99.90;;;;;;10091446;29;20244;-82
2023/03/16 04:44:33;;;;;;;10.70;6.33;;;8.30;99.90;;;;;;10069993;29;20267;-82
2023/03/16 04:49:36;;;;;;;11.67;6.33;;;8.10;99.90;;;;;;10078860;29;20241;-82
2023/03/16 04:54:39;;;;;;;12.43;6.70;;;7.70;99.90;;;;;;10090939;29;20219;-82
2023/03/16 04:59:42;;;;;;;12.47;6.17;;;7.10;99.90;;;;;;10089160;29;20782;-82
2023/03/16 05:04:56;;;;;;;10.17;6.10;;;6.80;99.90;;;;;;10089949;29;20308;-82
2023/03/16 05:09:59;;;;;;;7.07;4.53;;;6.60;99.90;;;;;;10077265;29;20264;-83
2023/03/16 05:15:03;;;;;;;11.23;5.93;;;6.00;99.90;;;;;;10088765;29;20240;-82
2023/03/16 05:20:15;;;;;;;8.27;5.30;;;5.10;99.90;;;;;;10089426;29;20284;-82
2023/03/16 05:25:25;;;;;;;9.63;5.37;;;5.60;99.90;;;;;;10070207;29;20252;-82
2023/03/16 05:30:30;;;;;;;7.60;4.43;;;5.70;99.90;;;;;;10050594;29;20277;-82
2023/03/16 05:35:37;;;;;;;15.03;6.90;;;5.20;99.90;;;;;;10050603;29;20252;-82
2023/03/16 05:40:45;;;;;;;19.57;9.33;;;5.10;99.90;;;;;;10057154;29;20274;-83
2023/03/16 05:46:14;;;;;;;18.03;7.13;;;5.60;99.90;;;;;;10088845;29;20252;-83
2023/03/16 05:51:17;;;;;;;10.43;5.80;;;5.60;99.90;;;;;;10074858;29;20273;-84
2023/03/16 05:56:27;;;;;;;15.17;6.40;;;5.60;99.90;;;;;;10079436;29;20324;-82
2023/03/16 06:01:32;;;;;;;11.43;5.80;;;7.00;99.90;;;;;;10104247;29;20310;-82
2023/03/16 06:06:37;;;;;;;11.47;6.63;;;7.50;99.90;;;;;;10108507;29;20252;-83
2023/03/16 06:11:45;;;;;;;10.67;5.80;;;7.60;99.90;;;;;;10055991;29;20269;-83
2023/03/16 06:16:50;;;;;;;8.60;5.20;;;7.90;99.90;;;;;;10049053;29;20268;-82
2023/03/16 06:21:54;;;;;;;8.90;5.90;;;7.70;99.90;;;;;;10064687;29;20249;-83
2023/03/16 06:26:56;;;;;;;10.93;7.07;;;7.50;99.40;;;;;;10051785;29;20241;-82
2023/03/16 06:32:05;;;;;;;17.73;7.80;;;6.20;99.90;;;;;;10058465;29;20653;-83
2023/03/16 06:37:08;;;;;;;19.77;10.90;;;6.10;99.90;;;;;;10059401;29;20606;-83
2023/03/16 06:42:11;;;;;;;14.00;6.97;;;4.90;98.10;;;;;;10050121;29;20273;-86
2023/03/16 06:47:13;;;;;;;24.03;9.33;;;5.80;99.90;;;;;;10049622;29;20237;-86
2023/03/16 06:52:16;;;;;;;22.90;8.07;;;3.60;99.90;;;;;;10048544;29;20273;-86
2023/03/16 06:57:20;;;;;;;11.53;5.13;;;2.50;99.90;;;;;;10050756;29;20636;-87
2023/03/16 07:02:24;;;;;;;10.43;4.57;;;3.40;99.90;;;;;;10087699;29;20240;-86
2023/03/16 07:07:27;;;;;;;11.77;4.67;;;6.00;99.90;;;;;;10130070;29;20296;-86
2023/03/16 07:12:30;;;;;;;6.27;3.50;;;8.10;99.90;;;;;;10111189;29;20336;-86
2023/03/16 07:17:33;;;;;;;6.87;3.60;;;9.00;99.90;;;;;;10094608;29;20277;-86
2023/03/16 07:22:40;;;;;;;12.63;4.33;;;10.00;97.20;;;;;;10092465;29;20692;-86
2023/03/16 07:27:46;;;;;;;6.60;3.73;;;9.90;96.70;;;;;;10092949;29;20255;-86
2023/03/16 07:32:55;;;;;;;8.67;4.40;;;;;;;;;;10086175;29;20716;-87
2023/03/16 07:38:00;;;;;;;9.43;4.37;;;11.10;92.50;;;;;;10090926;29;20316;-86
2023/03/16 07:43:03;;;;;;;7.50;4.27;;;11.10;93.00;;;;;;10072807;29;20252;-87
2023/03/16 07:48:10;;;;;;;11.93;3.70;;;11.40;92.60;;;;;;10090817;29;20265;-87
2023/03/16 07:53:21;;;;;;;4.80;2.43;;;11.10;79.90;;;;;;10097263;29;20255;-87
2023/03/16 07:58:30;;;;;;;8.97;3.73;;;12.10;91.00;;;;;;10095443;29;20246;-87
2023/03/16 08:03:33;;;;;;;4.07;2.00;;;12.00;73.40;;;;;;10092151;29;20308;-87
2023/03/16 08:08:36;;;;;;;8.63;3.43;;;12.50;87.50;;;;;;10091830;29;20327;-87
2023/03/16 08:13:42;;;;;;;10.07;3.80;;;11.50;86.80;;;;;;10091911;29;20332;-87
2023/03/16 08:18:48;;;;;;;6.30;2.90;;;10.40;80.00;;;;;;10086913;29;20292;-87
2023/03/16 08:23:50;;;;;;;6.27;3.30;;;12.20;92.10;;;;;;10104880;29;20703;-88
2023/03/16 08:28:54;;;;;;;7.10;2.80;;;12.10;62.80;;;;;;10095229;29;20251;-87
2023/03/16 08:33:58;;;;;;;7.70;3.17;;;9.50;60.50;;;;;;10089294;29;20275;-87
2023/03/16 08:39:06;;;;;;;9.17;2.97;;;9.80;83.60;;;;;;10055458;29;20910;-87
2023/03/16 08:44:16;;;;;;;7.10;3.30;;;10.60;87.50;;;;;;10068099;29;20257;-88
2023/03/16 08:49:19;;;;;;;5.00;3.00;;;11.10;75.70;;;;;;10086592;29;20853;-87
2023/03/16 08:54:33;;;;;;;5.20;2.80;;;11.40;75.50;;;;;;10091859;29;20280;-87
2023/03/16 08:59:36;;;;;;;7.53;3.37;;;8.20;83.90;;;;;;10059937;29;20246;-87
2023/03/16 09:04:40;;;;;;;8.00;2.90;;;7.60;87.20;;;;;;10074273;29;20257;-87
2023/03/16 09:09:43;;;;;;;9.47;3.20;;;7.00;90.30;;;;;;10107996;29;20248;-86
2023/03/16 09:14:47;;;;;;;6.37;2.27;;;6.00;94.70;;;;;;10108936;29;20304;-86
2023/03/16 09:19:54;;;;;;;7.50;3.70;;;7.70;99.90;;;;;;10109193;29;20312;-86
2023/03/16 09:25:13;;;;;;;6.37;2.83;;;7.60;91.20;;;;;;10107806;29;20236;-86
2023/03/16 09:30:16;;;;;;;5.33;2.70;;;7.20;93.50;;;;;;10108208;29;20682;-86
2023/03/16 09:35:19;;;;;;;10.73;2.47;;;6.50;99.90;;;;;;10087641;29;20281;-86
2023/03/16 09:40:27;;;;;;;10.20;3.60;;;8.50;99.90;;;;;;10113774;29;20293;-86
2023/03/16 09:45:33;;;;;;;4.93;2.57;;;8.10;87.00;;;;;;10114912;29;20366;-86
2023/03/16 09:50:39;;;;;;;4.20;2.73;;;7.00;97.70;;;;;;10110207;29;20814;-86
2023/03/16 09:55:57;;;;;;;5.03;2.43;;;8.00;94.50;;;;;;10103647;29;20237;-86
2023/03/16 10:01:24;;;;;;;5.77;3.07;;;7.30;91.60;;;;;;10111356;29;20248;-86
2023/03/16 10:06:27;;;;;;;2.97;1.63;;;10.30;95.90;;;;;;10106937;29;20303;-86
2023/03/16 10:11:43;;;;;;;9.00;3.13;;;11.20;93.00;;;;;;10107708;29;20295;-86
2023/03/16 10:17:04;;;;;;;10.60;3.00;;;9.10;74.50;;;;;;10105706;29;20663;-86
2023/03/16 10:22:26;;;;;;;4.23;2.40;;;9.10;93.20;;;;;;10102620;29;20242;-86
2023/03/16 10:27:30;;;;;;;4.37;2.50;;;;;;;;;;10106337;29;20700;-86
2023/03/16 10:32:35;;;;;;;7.07;2.00;;;12.10;81.30;;;;;;10104683;29;20301;-86
2023/03/16 10:37:38;;;;;;;4.47;2.93;;;13.00;86.30;;;;;;10109037;29;20240;-86
2023/03/16 10:42:40;;;;;;;2.77;2.17;;;11.50;73.80;;;;;;10116678;29;20248;-86
2023/03/16 10:47:43;;;;;;;11.60;3.77;;;13.10;80.90;;;;;;10096655;29;20688;-86
2023/03/16 10:52:48;;;;;;;3.70;2.50;;;12.70;57.20;;;;;;10084741;29;20269;-87
2023/03/16 10:57:53;;;;;;;4.57;2.57;;;12.10;72.80;;;;;;10092454;29;20243;-86
2023/03/16 11:02:58;;;;;;;2.20;1.83;;;12.40;68.50;;;;;;10096083;29;20310;-86
2023/03/16 11:08:20;;;;;;;4.43;2.27;;;12.50;69.30;;;;;;10070028;29;20249;-86
2023/03/16 11:13:36;;;;;;;3.27;1.23;;;10.70;73.20;;;;;;10084049;29;20673;-86
2023/03/16 11:19:12;;;;;;;6.20;2.67;;;11.30;84.30;;;;;;10090853;29;20965;-86
2023/03/16 11:24:44;;;;;;;7.07;1.70;;;12.90;73.90;;;;;;10030777;29;20243;-86
2023/03/16 11:30:15;;;;;;;3.97;2.07;;;13.20;71.90;;;;;;10091366;29;20251;-86
2023/03/16 11:35:22;;;;;;;11.33;4.10;;;11.80;60.40;;;;;;10093238;29;20328;-86
2023/03/16 11:40:32;;;;;;;13.40;4.10;;;8.40;55.90;;;;;;10073911;29;20304;-87
2023/03/16 11:45:44;;;;;;;8.13;2.40;;;7.60;76.50;;;;;;10061901;29;20289;-86
2023/03/16 11:50:48;;;;;;;9.73;3.23;;;8.20;99.90;;;;;;10056055;29;20256;-87
2023/03/16 11:56:14;;;;;;;5.07;2.07;;;9.30;66.90;;;;;;10072153;29;20349;-86
2023/03/16 12:01:38;;;;;;;5.93;2.57;;;10.00;51.40;;;;;;10094808;29;20233;-86
2023/03/16 12:07:08;;;;;;;9.63;1.97;;;8.90;55.30;;;;;;10095999;29;20985;-86
2023/03/16 12:12:41;;;;;;;3.10;1.50;;;10.00;59.30;;;;;;10097133;29;20323;-86
2023/03/16 12:17:45;;;;;;;3.87;1.63;;;11.60;43.10;;;;;;10092464;29;20668;-86
2023/03/16 12:23:01;;;;;;;2.20;0.93;;;12.20;36.20;;;;;;10096780;29;20642;-86
2023/03/16 12:28:09;;;;;;;1.63;1.13;;;12.00;40.70;;;;;;10095880;29;20317;-86
2023/03/16 12:33:36;;;;;;;2.10;1.20;;;11.00;45.60;;;;;;10095469;29;20349;-86
2023/03/16 12:39:00;;;;;;;11.90;5.70;;;11.60;42.60;;;;;;10078917;29;20635;-86
2023/03/16 12:44:30;;;;;;;4.10;1.33;;;9.40;35.80;;;;;;10094783;29;20592;-86
2023/03/16 12:49:35;;;;;;;16.20;5.60;;;10.00;44.20;;;;;;10094488;29;20695;-86
2023/03/16 12:55:15;;;;;;;5.00;2.20;;;10.20;40.10;;;;;;10094452;29;20327;-86
2023/03/16 13:00:18;;;;;;;3.97;1.57;;;10.90;36.00;;;;;;10094046;29;20303;-86
2023/03/16 13:05:33;;;;;;;3.73;1.50;;;10.20;44.00;;;;;;10093027;29;20940;-86
2023/03/16 13:10:37;;;;;;;4.23;1.90;;;9.40;37.70;;;;;;10094554;29;20252;-86
2023/03/16 13:15:43;;;;;;;2.93;1.50;;;9.40;41.30;;;;;;10093168;29;20868;-86
2023/03/16 13:21:15;;;;;;;4.37;1.50;;;9.20;54.50;;;;;;10094515;29;20233;-86
2023/03/16 13:26:38;;;;;;;2.90;1.57;;;9.30;50.30;;;;;;10095343;29;20723;-86
2023/03/16 13:31:40;;;;;;;3.83;1.43;;;9.10;47.00;;;;;;10094133;29;20218;-86
2023/03/16 13:36:44;;;;;;;2.23;1.00;;;9.20;63.80;;;;;;10094574;29;20580;-85
2023/03/16 13:42:03;;;;;;;3.13;1.70;;;9.00;54.40;;;;;;10066539;29;21889;-88
2023/03/16 13:47:06;;;;;;;5.60;1.20;;;8.50;54.30;;;;;;10058989;29;20212;-87
2023/03/16 13:52:28;;;;;;;2.50;1.20;;;9.50;38.50;;;;;;10082669;29;20234;-88
2023/03/16 13:57:36;;;;;;;1.87;0.80;;;11.40;63.80;;;;;;10096201;29;20217;-88
2023/03/16 14:02:43;;;;;;;6.30;1.40;;;12.70;75.00;;;;;;10110469;29;20196;-89
2023/03/16 14:07:47;;;;;;;10.13;3.60;;;11.70;48.20;;;;;;10131985;29;20200;-89
2023/03/16 14:12:56;;;;;;;4.60;1.30;;;11.20;33.10;;;;;;10143553;29;20241;-89
2023/03/16 14:18:29;;;;;;;4.10;1.80;;;8.70;36.20;;;;;;10150878;29;20232;-89
2023/03/16 14:23:39;;;;;;;4.03;1.60;;;8.20;43.60;;;;;;10135487;29;20242;-89
2023/03/16 14:29:00;;;;;;;5.13;2.13;;;8.10;48.40;;;;;;10149917;29;20218;-89
2023/03/16 14:34:07;;;;;;;4.73;1.90;;;7.50;43.50;;;;;;10187095;29;20215;-88
2023/03/16 14:39:13;;;;;;;6.90;2.37;;;6.50;46.30;;;;;;10189403;29;20213;-88
2023/03/16 14:44:20;;;;;;;10.60;2.70;;;6.50;50.50;;;;;;10172635;29;20192;-88
2023/03/16 14:49:26;;;;;;;4.13;2.43;;;6.30;48.70;;;;;;10150112;29;20218;-89
2023/03/16 14:54:29;;;;;;;3.77;1.60;;;6.30;48.50;;;;;;10149819;29;20437;-88
2023/03/16 14:59:32;;;;;;;6.73;1.37;;;6.30;48.30;;;;;;10160566;29;20201;-88
2023/03/16 15:04:36;;;;;;;3.70;1.50;;;6.50;44.90;;;;;;10153005;29;20217;-88
2023/03/16 15:09:43;;;;;;;5.53;2.23;;;6.40;43.70;;;;;;10139722;29;20209;-89
2023/03/16 15:20:14;;;;;;;4.20;1.47;;;6.20;49.20;;;;;;10139196;29;20233;-88
2023/03/16 15:25:36;;;;;;;8.07;2.53;;;6.50;42.90;;;;;;10162262;29;20188;-88
2023/03/16 15:30:39;;;;;;;3.30;1.60;;;6.60;45.00;;;;;;10146411;29;20193;-89
2023/03/16 15:35:45;;;;;;;3.27;1.43;;;6.40;41.90;;;;;;10145648;29;20225;-88
2023/03/16 15:40:52;;;;;;;4.47;2.13;;;6.50;98.40;;;;;;10147180;29;20218;-88
2023/03/16 15:45:56;;;;;;;11.63;3.97;;;6.80;53.40;;;;;;10148427;29;20193;-87
2023/03/16 15:51:01;;;;;;;10.70;2.63;;;6.40;51.00;;;;;;10142416;29;20222;-88
2023/03/16 15:56:08;;;;;;;8.63;4.10;;;6.20;53.20;;;;;;10146394;29;20217;-88
2023/03/16 16:01:21;;;;;;;9.40;3.60;;;;;;;;;;10140872;29;20188;-88
2023/03/16 16:06:24;;;;;;;11.43;4.07;;;5.80;52.60;;;;;;10150647;29;20201;-87
2023/03/16 16:11:27;;;;;;;11.63;4.73;;;5.70;54.90;;;;;;10150997;29;20185;-87
2023/03/16 16:16:32;;;;;;;3.27;2.27;;;5.70;55.70;;;;;;10149595;29;20246;-87
2023/03/16 16:21:35;;;;;;;6.23;2.37;;;5.80;94.70;;;;;;10134090;29;20230;-88
2023/03/16 16:26:41;;;;;;;10.33;3.73;;;5.80;99.90;;;;;;10150310;29;20221;-88
2023/03/16 16:31:54;;;;;;;33.23;19.10;;;5.70;99.90;;;;;;10131121;29;20185;-88
2023/03/16 16:36:57;;;;;;;22.30;10.07;;;;;;;;;;10142265;29;20217;-88
2023/03/16 16:42:00;;;;;;;13.00;6.40;;;5.20;98.20;;;;;;10110202;29;20193;-87
2023/03/16 16:47:16;;;;;;;17.93;6.40;;;5.00;99.90;;;;;;10117958;29;20189;-88
2023/03/16 16:52:19;;;;;;;22.13;7.80;;;4.80;99.90;;;;;;10144253;29;20754;-87
2023/03/16 16:57:21;;;;;;;71.07;24.63;;;4.40;99.90;;;;;;10130326;29;20194;-88
2023/03/16 17:02:31;;;;;;;85.97;30.47;;;4.30;99.90;;;;;;10134445;29;20190;-88
2023/03/16 17:07:35;;;;;;;30.57;11.03;;;3.90;99.90;;;;;;10136109;29;20198;-88
2023/03/16 17:12:37;;;;;;;20.37;6.73;;;3.70;99.90;;;;;;10132981;29;20217;-87
2023/03/16 17:17:40;;;;;;;33.17;10.23;;;;;;;;;;10148199;29;20219;-87
2023/03/16 17:22:45;;;;;;;43.37;16.07;;;3.30;99.90;;;;;;10144228;29;20250;-88
2023/03/16 17:27:50;;;;;;;27.33;10.77;;;3.00;99.90;;;;;;10146846;29;20214;-88
2023/03/16 17:32:58;;;;;;;17.67;7.90;;;2.80;99.90;;;;;;10117118;29;20256;-88
2023/03/16 17:38:00;;;;;;;31.73;10.33;;;2.60;99.90;;;;;;10117734;29;20228;-88
2023/03/16 17:43:10;;;;;;;75.70;28.73;;;2.40;99.90;;;;;;10142846;29;20219;-88
2023/03/16 17:48:15;;;;;;;52.80;20.70;;;;;;;;;;10109475;29;20182;-88
2023/03/16 17:53:19;;;;;;;29.53;11.67;;;2.00;99.90;;;;;;10135298;29;20242;-88
2023/03/16 17:58:30;;;;;;;36.93;17.17;;;2.00;99.90;;;;;;10132832;29;20196;-88
2023/03/16 18:03:33;;;;;;;43.83;23.57;;;4.80;99.90;;;;;;10137224;29;20280;-87
2023/03/16 18:08:36;;;;;;;44.47;18.67;;;3.90;99.90;;;;;;10146657;29;20189;-88
2023/03/16 18:13:40;;;;;;;33.47;18.17;;;3.10;99.90;;;;;;10145001;29;20229;-88
2023/03/16 18:18:42;;;;;;;47.30;20.77;;;2.50;99.90;;;;;;10145642;29;20246;-88
2023/03/16 18:23:46;;;;;;;77.00;37.87;;;;;;;;;;10164017;29;20208;-88
2023/03/16 18:28:49;;;;;;;148.10;73.23;;;1.50;99.90;;;;;;10150144;29;20749;-88
2023/03/16 18:33:55;;;;;;;128.10;60.57;;;1.30;99.90;;;;;;10123155;29;20236;-87
2023/03/16 18:39:01;;;;;;;101.77;48.00;;;1.40;99.90;;;;;;10113531;29;20200;-88
2023/03/16 18:44:18;;;;;;;63.23;33.57;;;1.40;99.90;;;;;;10120039;29;20274;-88
2023/03/16 18:49:25;;;;;;;45.63;22.67;;;1.50;99.90;;;;;;10118724;29;20650;-88
2023/03/16 18:54:30;;;;;;;37.93;21.57;;;1.80;99.90;;;;;;10126175;29;20699;-87
2023/03/16 18:59:33;;;;;;;40.73;20.30;;;1.60;99.90;;;;;;10122022;29;20201;-88
2023/03/16 19:04:38;;;;;;;33.73;17.60;;;1.40;99.90;;;;;;10109383;29;20218;-87
2023/03/16 19:09:41;;;;;;;47.70;22.83;;;1.10;99.90;;;;;;10075106;29;20209;-87
2023/03/16 19:14:44;;;;;;;36.03;20.27;;;0.80;99.90;;;;;;10082293;29;20266;-89
2023/03/16 19:19:46;;;;;;;43.83;19.33;;;0.90;99.90;;;;;;10110428;29;20289;-88
2023/03/16 19:24:53;;;;;;;40.43;20.07;;;0.80;99.90;;;;;;10108622;29;20297;-86
2023/03/16 19:29:57;;;;;;;43.47;21.57;;;0.90;99.90;;;;;;10106026;29;20265;-88
2023/03/16 19:35:00;;;;;;;39.77;22.37;;;0.70;99.90;;;;;;10105736;29;20257;-88
2023/03/16 19:40:04;;;;;;;34.73;20.67;;;0.80;99.90;;;;;;10105139;29;20217;-88
2023/03/16 19:45:16;;;;;;;26.83;13.77;;;1.10;99.90;;;;;;10083045;29;20222;-87
2023/03/16 19:50:21;;;;;;;45.37;27.30;;;3.50;99.90;;;;;;10072153;29;20210;-88
2023/03/16 19:55:30;;;;;;;47.93;26.60;;;3.40;99.90;;;;;;10066495;29;20246;-88
2023/03/16 20:00:33;;;;;;;48.10;27.40;;;2.10;99.90;;;;;;10073360;29;20623;-88
2023/03/16 20:05:38;;;;;;;44.40;25.97;;;1.40;99.90;;;;;;10101352;29;20286;-88
2023/03/16 20:10:41;;;;;;;57.20;30.10;;;1.00;99.90;;;;;;10088944;29;20567;-88
2023/03/16 20:15:46;;;;;;;46.90;27.30;;;0.80;99.90;;;;;;10108929;29;20232;-88
2023/03/16 20:20:49;;;;;;;48.13;28.17;;;0.40;99.90;;;;;;10108562;29;20796;-88
2023/03/16 20:25:55;;;;;;;41.17;23.40;;;0.40;99.90;;;;;;10107679;29;20291;-88
2023/03/16 20:30:58;;;;;;;64.77;36.37;;;0.60;99.90;;;;;;10107725;29;20281;-88
2023/03/16 20:36:01;;;;;;;45.93;27.83;;;0.70;99.90;;;;;;10096140;29;20237;-88
2023/03/16 20:41:25;;;;;;;53.60;29.10;;;1.20;99.90;;;;;;10089946;29;20212;-88
2023/03/16 20:46:29;;;;;;;64.23;33.77;;;2.00;99.90;;;;;;10074772;29;20242;-89
2023/03/16 20:51:32;;;;;;;64.60;35.00;;;1.90;99.90;;;;;;10066697;29;20246;-88
2023/03/16 20:56:35;;;;;;;60.37;30.83;;;1.70;99.90;;;;;;10091955;29;20234;-88
2023/03/16 21:01:42;;;;;;;51.60;28.70;;;1.80;99.90;;;;;;10063752;29;20257;-88
2023/03/16 21:06:49;;;;;;;48.27;27.70;;;1.80;99.90;;;;;;10077799;29;20213;-88
2023/03/16 21:11:52;;;;;;;53.03;28.50;;;2.10;99.90;;;;;;10089317;29;20237;-89
2023/03/16 21:16:55;;;;;;;42.57;24.77;;;1.80;99.90;;;;;;10091762;29;20280;-88
2023/03/16 21:21:57;;;;;;;42.00;24.27;;;1.60;99.90;;;;;;10070689;29;20249;-88
2023/03/16 21:27:00;;;;;;;47.80;24.37;;;1.80;99.90;;;;;;10092930;29;20217;-88
2023/03/16 21:32:17;;;;;;;46.53;24.13;;;1.40;99.90;;;;;;10072990;29;20256;-88
2023/03/16 21:37:23;;;;;;;46.97;25.20;;;1.40;99.90;;;;;;10053539;29;20352;-88
2023/03/16 21:42:25;;;;;;;46.20;23.40;;;1.30;99.90;;;;;;10069481;29;20240;-88
2023/03/16 21:47:28;;;;;;;41.97;23.53;;;1.20;99.90;;;;;;10092302;29;20272;-88
2023/03/16 21:52:31;;;;;;;44.00;22.37;;;1.20;99.90;;;;;;10107661;29;20248;-89
2023/03/16 21:57:34;;;;;;;38.17;20.77;;;1.30;99.90;;;;;;10105040;29;20243;-89
2023/03/16 22:02:37;;;;;;;36.23;18.37;;;1.20;99.90;;;;;;10107927;29;20308;-88
2023/03/16 22:07:40;;;;;;;28.63;15.47;;;1.00;99.90;;;;;;10089522;29;20216;-88
2023/03/16 22:12:42;;;;;;;30.07;17.00;;;0.90;99.90;;;;;;10113719;29;20303;-89
2023/03/16 22:17:46;;;;;;;36.10;19.43;;;0.70;99.90;;;;;;10106982;29;20268;-89
2023/03/16 22:22:50;;;;;;;30.30;17.30;;;0.50;99.90;;;;;;10100672;29;20296;-88
2023/03/16 22:27:52;;;;;;;31.60;18.73;;;0.60;99.90;;;;;;10098464;29;20277;-88
2023/03/16 22:32:59;;;;;;;28.20;16.30;;;0.40;99.90;;;;;;10088975;29;20251;-88
2023/03/16 22:38:06;;;;;;;27.00;14.20;;;0.10;99.90;;;;;;10095625;29;20327;-88
2023/03/16 22:43:15;;;;;;;30.30;18.67;;;0.10;99.90;;;;;;10085298;29;20270;-88
2023/03/16 22:48:21;;;;;;;34.83;18.57;;;0.00;99.90;;;;;;10076324;29;20245;-88
2023/03/16 22:53:31;;;;;;;30.97;17.73;;;0.00;99.90;;;;;;10085772;29;20680;-89
2023/03/16 22:58:50;;;;;;;32.53;17.93;;;0.50;99.90;;;;;;10058392;29;21019;-89
2023/03/16 23:03:52;;;;;;;30.50;17.00;;;1.10;99.90;;;;;;10065622;29;20244;-89
2023/03/16 23:08:55;;;;;;;29.90;16.53;;;1.50;99.90;;;;;;10078289;29;20315;-88
2023/03/16 23:13:59;;;;;;;30.00;16.90;;;1.80;99.90;;;;;;10078411;29;20247;-89
2023/03/16 23:19:02;;;;;;;25.60;14.13;;;1.50;99.90;;;;;;10092464;29;20694;-88
2023/03/16 23:24:13;;;;;;;27.80;15.00;;;1.30;99.90;;;;;;10072184;29;20319;-88
2023/03/16 23:29:16;;;;;;;27.13;15.50;;;1.10;99.90;;;;;;10094760;29;20244;-87
2023/03/16 23:34:21;;;;;;;26.20;13.97;;;1.00;99.90;;;;;;10095002;29;20801;-87
2023/03/16 23:39:24;;;;;;;21.63;12.63;;;0.90;99.90;;;;;;10093742;29;20966;-88
2023/03/16 23:44:29;;;;;;;23.30;13.00;;;1.10;99.90;;;;;;10044781;29;20306;-87
2023/03/16 23:49:35;;;;;;;16.30;10.33;;;1.80;99.90;;;;;;10092048;29;20255;-87
2023/03/16 23:54:38;;;;;;;16.97;9.93;;;2.20;99.90;;;;;;10089828;29;20269;-88
2023/03/16 23:59:41;;;;;;;17.83;12.03;;;2.10;99.90;;;;;;10086219;29;20617;-87
